Time;durP1;ratioP1;P1;durP2;ratioP2;P2;SDS_P1;SDS_P2;PMS_P1;PMS_P2;Temp;Humidity;BMP_temperature;BMP_pressure;BME280_temperature;BME280_humidity;BME280_pressure;Samples;Min_cycle;Max_cycle;Signal;HPM_P1;HPM_P2
2024/01/05 00:01:37;;;;;;;33.17;19.63;;;5.60;99.90;;;;;;5134136;27;20182;-79
2024/01/05 00:04:03;;;;;;;35.28;19.55;;;5.50;99.90;;;;;;5133450;27;20432;-79
2024/01/05 00:06:29;;;;;;;38.90;20.65;;;5.40;99.90;;;;;;5133722;27;20031;-81
2024/01/05 00:08:55;;;;;;;28.90;18.75;;;5.40;99.90;;;;;;5133819;27;20128;-81
2024/01/05 00:11:21;;;;;;;33.38;19.85;;;5.40;99.90;;;;;;5133879;27;20019;-80
2024/01/05 00:13:47;;;;;;;35.28;20.35;;;5.40;99.90;;;;;;5133030;27;20023;-80
2024/01/05 00:16:21;;;;;;;42.10;22.10;;;5.50;99.90;;;;;;5133551;27;20035;-80
2024/01/05 00:18:47;;;;;;;37.67;22.67;;;5.40;99.90;;;;;;5133741;27;20403;-80
2024/01/05 00:21:24;;;;;;;36.90;20.38;;;5.50;99.90;;;;;;5132636;27;20030;-80
2024/01/05 00:23:51;;;;;;;35.15;20.20;;;5.40;99.90;;;;;;5115128;27;20026;-81
2024/01/05 00:26:17;;;;;;;38.05;20.40;;;5.50;99.90;;;;;;5132908;27;20039;-80
2024/01/05 00:28:43;;;;;;;35.35;20.38;;;5.50;99.90;;;;;;5098245;27;20194;-80
2024/01/05 00:31:13;;;;;;;31.58;19.52;;;5.50;99.90;;;;;;5132994;27;20220;-79
2024/01/05 00:33:42;;;;;;;33.22;19.02;;;5.50;99.90;;;;;;5133347;27;20111;-79
2024/01/05 00:36:09;;;;;;;40.28;22.33;;;5.50;99.90;;;;;;5132973;27;20055;-80
2024/01/05 00:38:36;;;;;;;32.33;19.75;;;5.50;99.90;;;;;;5134148;27;20019;-78
2024/01/05 00:41:02;;;;;;;34.13;21.67;;;5.50;99.90;;;;;;5132972;27;20074;-80
2024/01/05 00:43:28;;;;;;;37.30;21.75;;;5.60;99.90;;;;;;5134403;27;20019;-79
2024/01/05 00:45:55;;;;;;;35.58;20.73;;;5.40;99.90;;;;;;5133876;27;20110;-79
2024/01/05 00:48:21;;;;;;;37.50;20.45;;;5.40;99.90;;;;;;5133599;27;20023;-79
2024/01/05 00:50:46;;;;;;;30.52;19.75;;;5.40;99.90;;;;;;5133556;27;20527;-79
2024/01/05 00:53:12;;;;;;;32.67;19.13;;;5.40;99.90;;;;;;5133525;27;20086;-79
2024/01/05 00:55:38;;;;;;;36.65;21.50;;;5.50;99.90;;;;;;5133869;27;20047;-79
2024/01/05 00:58:04;;;;;;;29.55;19.17;;;5.50;99.90;;;;;;5132938;27;20019;-80
2024/01/05 01:00:30;;;;;;;29.50;20.08;;;5.40;99.90;;;;;;5134148;27;20075;-80
2024/01/05 01:02:56;;;;;;;36.10;19.67;;;5.50;99.90;;;;;;5133421;27;20015;-80
2024/01/05 01:05:22;;;;;;;37.70;19.15;;;5.40;99.90;;;;;;5133753;27;20026;-79
2024/01/05 01:07:48;;;;;;;33.10;19.30;;;5.50;99.90;;;;;;5115019;27;20212;-79
2024/01/05 01:10:14;;;;;;;36.10;19.75;;;5.50;99.90;;;;;;5114425;27;20072;-79
2024/01/05 01:12:40;;;;;;;32.92;19.20;;;5.50;99.90;;;;;;5115167;27;20114;-79
2024/01/05 01:15:06;;;;;;;31.17;18.45;;;5.50;99.90;;;;;;5114685;27;20388;-79
2024/01/05 01:17:32;;;;;;;34.95;19.67;;;5.50;99.90;;;;;;5134085;27;20039;-79
2024/01/05 01:19:58;;;;;;;34.10;19.33;;;5.50;99.90;;;;;;5133369;27;20343;-79
2024/01/05 01:22:24;;;;;;;32.67;18.38;;;5.40;99.90;;;;;;5133370;27;20025;-79
2024/01/05 01:24:50;;;;;;;30.45;17.98;;;5.50;99.90;;;;;;5114602;27;20130;-79
2024/01/05 01:27:17;;;;;;;32.72;18.42;;;5.60;99.90;;;;;;5132604;27;20105;-79
2024/01/05 01:29:43;;;;;;;29.98;17.77;;;5.50;99.90;;;;;;5133097;27;20022;-79
2024/01/05 01:32:09;;;;;;;29.77;17.45;;;5.50;99.90;;;;;;5133087;27;20019;-79
2024/01/05 01:34:38;;;;;;;30.02;16.35;;;5.60;99.90;;;;;;5134432;27;20080;-79
2024/01/05 01:37:04;;;;;;;26.27;15.40;;;5.60;99.90;;;;;;5132749;27;20431;-79
2024/01/05 01:39:30;;;;;;;35.67;18.35;;;5.50;99.90;;;;;;5133601;27;20027;-79
2024/01/05 01:41:56;;;;;;;25.42;14.93;;;5.60;99.90;;;;;;5133028;27;20019;-79
2024/01/05 01:44:22;;;;;;;28.15;15.70;;;5.50;99.90;;;;;;5132260;27;20019;-79
2024/01/05 01:46:50;;;;;;;26.75;15.80;;;5.60;99.90;;;;;;5132512;27;20341;-79
2024/01/05 01:49:16;;;;;;;29.50;16.75;;;5.40;99.90;;;;;;5132206;27;20075;-79
2024/01/05 01:51:44;;;;;;;30.98;17.88;;;5.50;99.90;;;;;;5132436;27;20478;-78
2024/01/05 01:54:10;;;;;;;27.35;16.30;;;5.50;99.90;;;;;;5131678;27;20109;-79
2024/01/05 01:56:37;;;;;;;28.55;16.35;;;5.50;99.90;;;;;;5132277;27;20104;-79
2024/01/05 01:59:05;;;;;;;29.42;15.85;;;5.40;99.90;;;;;;5142710;27;20018;-79
2024/01/05 02:01:32;;;;;;;27.02;16.00;;;5.50;99.90;;;;;;5155928;27;20033;-78
2024/01/05 02:03:58;;;;;;;26.98;15.93;;;5.40;99.90;;;;;;5156335;27;20015;-78
2024/01/05 02:06:24;;;;;;;31.50;16.80;;;5.60;99.90;;;;;;5150200;27;20080;-78
2024/01/05 02:08:50;;;;;;;32.70;18.55;;;5.40;99.90;;;;;;5132708;27;20024;-79
2024/01/05 02:11:17;;;;;;;37.10;18.75;;;5.40;99.90;;;;;;5113056;27;20027;-78
2024/01/05 02:13:43;;;;;;;36.03;18.45;;;5.50;99.90;;;;;;5132141;27;20477;-80
2024/01/05 02:16:09;;;;;;;34.90;17.35;;;5.50;99.90;;;;;;5132379;27;20108;-79
2024/01/05 02:18:34;;;;;;;32.03;17.55;;;5.40;99.90;;;;;;5132800;27;20030;-78
2024/01/05 02:21:02;;;;;;;28.77;16.65;;;5.50;99.90;;;;;;5132626;28;20030;-79
2024/01/05 02:23:30;;;;;;;32.65;17.67;;;5.40;99.90;;;;;;5133481;27;20023;-79
2024/01/05 02:25:57;;;;;;;30.63;17.13;;;5.50;99.90;;;;;;5132933;28;20080;-79
2024/01/05 02:28:24;;;;;;;32.47;17.77;;;5.50;99.90;;;;;;5132706;28;20051;-79
2024/01/05 02:30:53;;;;;;;34.15;17.13;;;5.40;99.90;;;;;;5133072;28;20045;-79
2024/01/05 02:33:18;;;;;;;34.65;16.60;;;5.40;99.90;;;;;;5132094;28;20019;-79
2024/01/05 02:35:44;;;;;;;38.58;18.27;;;5.40;99.90;;;;;;5132810;28;20430;-79
2024/01/05 02:38:10;;;;;;;26.65;15.32;;;5.20;99.90;;;;;;5134839;27;20030;-79
2024/01/05 02:40:35;;;;;;;29.10;16.88;;;5.20;99.90;;;;;;5136940;27;20144;-78
2024/01/05 02:43:01;;;;;;;29.33;16.35;;;5.20;99.90;;;;;;5136838;27;20106;-79
2024/01/05 02:45:27;;;;;;;26.77;15.20;;;5.40;99.90;;;;;;5136150;27;20072;-79
2024/01/05 02:47:53;;;;;;;26.73;14.15;;;5.40;99.90;;;;;;5136278;27;20034;-79
2024/01/05 02:50:20;;;;;;;27.55;14.68;;;5.50;99.90;;;;;;5117710;27;20359;-79
2024/01/05 02:52:46;;;;;;;25.30;13.43;;;5.30;99.90;;;;;;5136352;27;20436;-79
2024/01/05 02:55:12;;;;;;;23.92;13.73;;;5.30;99.90;;;;;;5135892;27;20043;-79
2024/01/05 02:57:39;;;;;;;22.48;13.20;;;5.40;99.90;;;;;;5136296;27;20106;-79
2024/01/05 03:00:05;;;;;;;23.13;13.93;;;5.30;99.90;;;;;;5136636;27;20300;-79
2024/01/05 03:02:31;;;;;;;22.75;14.18;;;5.40;99.90;;;;;;5136565;27;20027;-79
2024/01/05 03:04:58;;;;;;;23.92;14.40;;;5.30;99.90;;;;;;5117819;27;20027;-79
2024/01/05 03:07:23;;;;;;;26.92;15.20;;;5.20;99.90;;;;;;5135972;27;20107;-79
2024/01/05 03:09:50;;;;;;;21.58;13.23;;;5.40;99.90;;;;;;5136042;27;20027;-79
2024/01/05 03:12:16;;;;;;;22.67;13.18;;;5.40;99.90;;;;;;5135862;27;20023;-78
2024/01/05 03:14:42;;;;;;;25.85;13.65;;;5.30;99.90;;;;;;5136175;27;20019;-79
2024/01/05 03:17:08;;;;;;;26.63;13.25;;;5.20;99.90;;;;;;5135716;27;20012;-79
2024/01/05 03:19:34;;;;;;;25.92;13.43;;;5.30;99.90;;;;;;5136574;27;20035;-79
2024/01/05 03:22:00;;;;;;;24.58;12.95;;;5.20;99.90;;;;;;5136466;27;20031;-78
2024/01/05 03:24:25;;;;;;;20.95;11.75;;;5.20;99.90;;;;;;5135875;27;20023;-78
2024/01/05 03:26:51;;;;;;;20.20;12.48;;;5.10;99.90;;;;;;5118355;27;20019;-78
2024/01/05 03:29:17;;;;;;;18.27;11.80;;;5.10;99.90;;;;;;5135740;27;20416;-78
2024/01/05 03:31:46;;;;;;;18.85;11.90;;;5.00;99.90;;;;;;5136726;27;20019;-80
2024/01/05 03:34:13;;;;;;;17.60;12.00;;;5.00;99.90;;;;;;5117322;27;20029;-80
2024/01/05 03:36:38;;;;;;;15.32;9.98;;;5.00;99.90;;;;;;5117855;27;20027;-79
2024/01/05 03:39:06;;;;;;;21.20;11.93;;;4.90;99.90;;;;;;5136333;27;20023;-78
2024/01/05 03:41:32;;;;;;;16.58;11.38;;;5.00;99.90;;;;;;5136206;27;20020;-78
2024/01/05 03:43:58;;;;;;;19.30;11.48;;;5.00;99.90;;;;;;5136620;27;20041;-80
2024/01/05 03:46:24;;;;;;;16.65;10.82;;;4.90;99.90;;;;;;5135750;27;20027;-79
2024/01/05 03:48:50;;;;;;;19.02;11.30;;;4.80;99.90;;;;;;5135936;27;20047;-79
2024/01/05 03:51:16;;;;;;;21.25;11.80;;;4.80;99.90;;;;;;5135833;27;20463;-78
2024/01/05 03:53:41;;;;;;;18.88;10.82;;;4.70;99.90;;;;;;5136635;27;20023;-79
2024/01/05 03:56:08;;;;;;;15.48;10.75;;;4.70;99.90;;;;;;5135344;27;20058;-78
2024/01/05 03:58:34;;;;;;;20.73;10.80;;;4.60;99.90;;;;;;5136198;27;20019;-78
2024/01/05 04:01:02;;;;;;;18.48;10.77;;;4.60;99.90;;;;;;5135650;27;20035;-78
2024/01/05 04:03:28;;;;;;;18.60;10.60;;;4.70;99.90;;;;;;5135549;27;20025;-79
2024/01/05 04:05:54;;;;;;;20.10;10.65;;;4.70;99.90;;;;;;5135976;27;20027;-78
2024/01/05 04:08:20;;;;;;;20.65;11.50;;;4.70;99.90;;;;;;5136457;27;20038;-78
2024/01/05 04:10:46;;;;;;;20.27;10.93;;;4.50;99.90;;;;;;5136526;27;20413;-79
2024/01/05 04:13:12;;;;;;;19.02;10.98;;;4.50;99.90;;;;;;5117196;27;20072;-79
2024/01/05 04:15:39;;;;;;;19.35;10.00;;;4.60;99.90;;;;;;5136884;27;20034;-78
2024/01/05 04:18:05;;;;;;;14.07;8.75;;;4.60;99.90;;;;;;5136863;27;20528;-78
2024/01/05 04:20:31;;;;;;;17.52;9.73;;;4.70;99.90;;;;;;5137440;27;20474;-78
2024/01/05 04:22:58;;;;;;;17.48;9.80;;;4.60;99.90;;;;;;5123369;27;20109;-78
2024/01/05 04:25:23;;;;;;;23.77;10.88;;;4.50;99.90;;;;;;5153416;27;20034;-78
2024/01/05 04:27:49;;;;;;;18.10;9.90;;;4.60;99.90;;;;;;5153414;27;20019;-78
2024/01/05 04:30:16;;;;;;;17.33;9.32;;;4.50;99.90;;;;;;5146668;27;20015;-78
2024/01/05 04:32:43;;;;;;;19.52;9.43;;;4.50;99.90;;;;;;5147482;27;20026;-78
2024/01/05 04:35:09;;;;;;;19.63;9.95;;;4.40;99.90;;;;;;5148702;27;20443;-78
2024/01/05 04:37:34;;;;;;;15.05;9.55;;;4.40;99.90;;;;;;5147766;27;20024;-78
2024/01/05 04:40:00;;;;;;;13.07;8.85;;;4.50;99.90;;;;;;5147133;27;20407;-77
2024/01/05 04:42:26;;;;;;;14.77;9.15;;;4.30;99.90;;;;;;5139177;27;20071;-79
2024/01/05 04:44:52;;;;;;;17.02;9.25;;;4.30;99.90;;;;;;5134370;27;20114;-79
2024/01/05 04:47:18;;;;;;;21.10;9.20;;;4.40;99.90;;;;;;5134381;27;20440;-78
2024/01/05 04:49:44;;;;;;;20.60;10.23;;;4.40;99.90;;;;;;5134641;27;20026;-79
2024/01/05 04:52:11;;;;;;;18.13;9.48;;;4.20;99.90;;;;;;5134992;27;20027;-79
2024/01/05 04:54:37;;;;;;;23.73;9.77;;;4.30;99.90;;;;;;5134657;27;20047;-79
2024/01/05 04:57:03;;;;;;;15.32;8.88;;;4.20;99.90;;;;;;5134562;27;20054;-79
2024/01/05 04:59:30;;;;;;;13.85;8.45;;;4.30;99.90;;;;;;5133209;27;20088;-79
2024/01/05 05:01:56;;;;;;;16.92;7.72;;;4.20;99.90;;;;;;5134453;27;20160;-79
2024/01/05 05:04:22;;;;;;;15.80;8.75;;;4.30;99.90;;;;;;5098463;27;20478;-80
2024/01/05 05:06:47;;;;;;;15.20;9.38;;;4.30;99.90;;;;;;5133910;27;20048;-79
2024/01/05 05:09:13;;;;;;;17.17;7.85;;;4.10;99.90;;;;;;5115062;27;20023;-80
2024/01/05 05:11:42;;;;;;;16.17;8.43;;;4.10;99.90;;;;;;5133662;27;20442;-80
2024/01/05 05:14:07;;;;;;;15.13;7.85;;;4.10;99.90;;;;;;5133704;27;20041;-78
2024/01/05 05:16:35;;;;;;;16.20;8.02;;;4.20;99.90;;;;;;5133023;27;20633;-78
2024/01/05 05:19:01;;;;;;;20.55;9.27;;;4.00;99.90;;;;;;5133900;27;20019;-79
2024/01/05 05:21:28;;;;;;;13.20;8.98;;;4.10;99.90;;;;;;5133310;27;20026;-77
2024/01/05 05:23:53;;;;;;;18.85;8.73;;;4.10;99.90;;;;;;5133589;27;20059;-78
2024/01/05 05:26:19;;;;;;;13.45;8.60;;;4.10;99.90;;;;;;5133007;27;20070;-77
2024/01/05 05:28:45;;;;;;;17.85;9.18;;;4.00;99.90;;;;;;5114854;27;20095;-78
2024/01/05 05:31:11;;;;;;;18.95;8.02;;;4.10;99.90;;;;;;5132821;27;20015;-78
2024/01/05 05:33:36;;;;;;;12.77;7.80;;;4.10;99.90;;;;;;5132705;27;20015;-78
2024/01/05 05:36:02;;;;;;;14.68;7.45;;;4.00;99.90;;;;;;5133068;27;20039;-78
2024/01/05 05:38:28;;;;;;;14.35;7.10;;;4.00;99.90;;;;;;5114145;27;20336;-78
2024/01/05 05:40:54;;;;;;;14.68;7.22;;;4.00;99.90;;;;;;5132825;27;20106;-78
2024/01/05 05:43:19;;;;;;;13.63;7.35;;;3.90;99.90;;;;;;5132357;27;20023;-77
2024/01/05 05:45:45;;;;;;;19.98;6.88;;;3.80;99.90;;;;;;5132688;27;20414;-79
2024/01/05 05:48:12;;;;;;;12.27;6.70;;;3.90;99.90;;;;;;5132808;27;20048;-79
2024/01/05 05:50:38;;;;;;;12.57;7.10;;;3.80;99.90;;;;;;5132370;27;20049;-78
2024/01/05 05:53:03;;;;;;;14.98;7.38;;;3.90;99.90;;;;;;5132696;27;20019;-78
2024/01/05 05:55:30;;;;;;;14.55;7.25;;;3.80;99.90;;;;;;5132383;27;20066;-79
2024/01/05 05:57:57;;;;;;;15.70;7.38;;;3.70;99.90;;;;;;5132534;27;20023;-79
2024/01/05 06:00:25;;;;;;;14.65;7.00;;;3.80;99.90;;;;;;5096819;27;20293;-79
2024/01/05 06:02:50;;;;;;;11.10;6.40;;;3.60;99.90;;;;;;5132866;27;20087;-79
2024/01/05 06:05:16;;;;;;;16.60;7.07;;;3.60;99.90;;;;;;5132336;27;20027;-79
2024/01/05 06:07:42;;;;;;;13.75;7.97;;;3.60;99.90;;;;;;5132591;27;20103;-78
2024/01/05 06:10:08;;;;;;;16.92;8.52;;;3.70;99.90;;;;;;5131822;27;20023;-79
2024/01/05 06:12:34;;;;;;;14.30;8.57;;;3.60;99.90;;;;;;5131207;27;20019;-79
2024/01/05 06:15:00;;;;;;;21.60;8.90;;;3.60;99.90;;;;;;5132099;27;20068;-78
2024/01/05 06:17:26;;;;;;;13.38;8.23;;;3.60;99.90;;;;;;5131573;27;20019;-79
2024/01/05 06:19:51;;;;;;;16.50;7.45;;;3.40;99.90;;;;;;5132568;27;20030;-79
2024/01/05 06:22:17;;;;;;;16.00;7.43;;;3.40;99.90;;;;;;5132177;27;20029;-79
2024/01/05 06:24:44;;;;;;;11.02;6.32;;;3.40;99.90;;;;;;5132291;27;20409;-79
2024/01/05 06:27:11;;;;;;;13.68;7.50;;;3.50;99.90;;;;;;5132666;28;20026;-79
2024/01/05 06:29:37;;;;;;;13.43;6.57;;;3.50;99.90;;;;;;5131966;28;20023;-80
2024/01/05 06:32:03;;;;;;;15.88;7.53;;;3.40;99.90;;;;;;5132897;28;20340;-78
2024/01/05 06:34:29;;;;;;;12.35;6.53;;;3.30;99.90;;;;;;5131806;28;20390;-78
2024/01/05 06:36:54;;;;;;;10.95;5.97;;;3.40;99.90;;;;;;5113978;28;20098;-79
2024/01/05 06:39:20;;;;;;;14.27;5.80;;;3.40;99.90;;;;;;5131360;28;20110;-79
2024/01/05 06:41:46;;;;;;;13.20;6.07;;;3.40;99.90;;;;;;5113898;28;20066;-77
2024/01/05 06:44:12;;;;;;;17.70;6.63;;;3.50;99.90;;;;;;5132720;28;20023;-79
2024/01/05 06:46:37;;;;;;;11.15;6.22;;;3.50;99.90;;;;;;5131388;28;20035;-79
2024/01/05 06:49:03;;;;;;;17.00;5.90;;;3.50;99.90;;;;;;5132573;28;20075;-79
2024/01/05 06:51:35;;;;;;;15.93;6.53;;;3.60;99.90;;;;;;5131694;28;20098;-79
2024/01/05 06:54:01;;;;;;;;;;;3.70;99.90;;;;;;5132636;28;20507;-79
2024/01/05 06:56:31;;;;;;;13.55;5.50;;;3.80;99.90;;;;;;5113412;28;19979;-79
2024/01/05 06:58:58;;;;;;;11.52;5.28;;;3.70;99.90;;;;;;5132258;28;20023;-79
2024/01/05 07:01:23;;;;;;;13.73;5.78;;;3.70;99.90;;;;;;5131543;28;20480;-79
2024/01/05 07:03:49;;;;;;;10.98;4.90;;;3.80;99.90;;;;;;5131777;28;20036;-79
2024/01/05 07:06:16;;;;;;;18.17;6.40;;;3.90;99.90;;;;;;5131697;28;20081;-79
2024/01/05 07:08:41;;;;;;;14.68;6.40;;;3.80;99.90;;;;;;5131614;28;20027;-79
2024/01/05 07:11:09;;;;;;;12.40;5.95;;;4.00;99.90;;;;;;5131611;28;20020;-79
2024/01/05 07:13:35;;;;;;;14.60;6.95;;;3.80;99.90;;;;;;5131362;28;20023;-79
2024/01/05 07:16:01;;;;;;;12.50;6.25;;;3.90;99.90;;;;;;5131610;28;20492;-79
2024/01/05 07:18:26;;;;;;;13.70;7.38;;;3.90;99.90;;;;;;5131016;28;20023;-79
2024/01/05 07:20:52;;;;;;;16.55;6.43;;;3.90;99.90;;;;;;5131665;28;20106;-79
2024/01/05 07:23:18;;;;;;;11.27;4.90;;;3.90;99.90;;;;;;5114320;27;20019;-79
2024/01/05 07:25:43;;;;;;;14.43;6.07;;;3.80;99.90;;;;;;5135014;27;20034;-79
2024/01/05 07:28:09;;;;;;;15.43;5.75;;;3.90;99.90;;;;;;5135408;27;20023;-79
2024/01/05 07:30:35;;;;;;;11.68;5.28;;;3.70;99.90;;;;;;5134944;27;20027;-79
2024/01/05 07:33:01;;;;;;;14.27;5.78;;;3.70;99.90;;;;;;5135481;27;20023;-79
2024/01/05 07:35:27;;;;;;;13.93;5.63;;;3.80;99.90;;;;;;5134928;27;20075;-79
2024/01/05 07:37:53;;;;;;;14.68;5.93;;;3.70;99.90;;;;;;5135219;27;20015;-78
2024/01/05 07:40:19;;;;;;;12.10;5.40;;;3.60;99.90;;;;;;5135070;27;20019;-78
2024/01/05 07:42:44;;;;;;;10.65;4.50;;;3.60;99.90;;;;;;5134307;27;20027;-78
2024/01/05 07:45:10;;;;;;;13.55;4.65;;;3.60;99.90;;;;;;5134819;27;20031;-78
2024/01/05 07:47:36;;;;;;;12.38;4.65;;;3.50;99.90;;;;;;5134128;27;20476;-78
2024/01/05 07:50:03;;;;;;;14.40;4.25;;;3.60;99.90;;;;;;5134208;27;20028;-78
2024/01/05 07:52:29;;;;;;;12.85;4.00;;;3.50;99.90;;;;;;5133895;27;20028;-79
2024/01/05 07:54:55;;;;;;;13.90;3.95;;;3.50;99.90;;;;;;5115850;27;20042;-78
2024/01/05 07:57:21;;;;;;;13.60;4.35;;;3.50;99.90;;;;;;5134541;27;20087;-78
2024/01/05 07:59:46;;;;;;;13.30;4.95;;;3.40;99.90;;;;;;5134098;27;20060;-78
2024/01/05 08:02:13;;;;;;;13.43;4.30;;;3.50;99.90;;;;;;5135018;27;20019;-76
2024/01/05 08:04:39;;;;;;;7.65;3.47;;;3.40;99.90;;;;;;5133721;27;20022;-79
2024/01/05 08:07:05;;;;;;;13.05;5.00;;;3.50;99.90;;;;;;5134429;27;20027;-78
2024/01/05 08:09:31;;;;;;;7.72;3.72;;;3.50;99.90;;;;;;5115572;27;20072;-79
2024/01/05 08:11:56;;;;;;;9.60;4.00;;;3.50;99.90;;;;;;5134347;27;20035;-78
2024/01/05 08:14:22;;;;;;;11.07;3.85;;;3.40;99.90;;;;;;5134418;27;20023;-78
2024/01/05 08:16:48;;;;;;;11.93;4.55;;;3.50;99.90;;;;;;5133668;27;20098;-79
2024/01/05 08:19:14;;;;;;;13.30;4.20;;;3.40;99.90;;;;;;5115806;27;20448;-78
2024/01/05 08:21:40;;;;;;;18.48;3.92;;;3.50;99.90;;;;;;5133782;27;20042;-79
2024/01/05 08:24:06;;;;;;;15.02;4.05;;;3.50;99.90;;;;;;5134211;27;20015;-79
2024/01/05 08:26:31;;;;;;;9.70;3.78;;;3.50;99.90;;;;;;5133770;27;20106;-80
2024/01/05 08:28:57;;;;;;;12.10;3.80;;;3.40;99.90;;;;;;5133695;27;20105;-79
2024/01/05 08:31:23;;;;;;;10.77;3.60;;;3.40;99.90;;;;;;5125303;27;20076;-78
2024/01/05 08:33:48;;;;;;;14.07;4.10;;;3.40;99.90;;;;;;5125903;27;20102;-79
2024/01/05 08:36:14;;;;;;;11.68;4.40;;;3.40;99.90;;;;;;5115664;27;20460;-79
2024/01/05 08:38:40;;;;;;;10.48;4.15;;;3.40;99.90;;;;;;5113480;28;20076;-79
2024/01/05 08:41:05;;;;;;;12.35;4.20;;;3.30;99.90;;;;;;5095545;28;20137;-79
2024/01/05 08:43:31;;;;;;;11.07;4.32;;;3.30;99.90;;;;;;5122118;27;20375;-79
2024/01/05 08:45:57;;;;;;;14.68;5.13;;;3.30;99.90;;;;;;5125269;27;20027;-79
2024/01/05 08:48:23;;;;;;;11.38;5.00;;;3.30;99.90;;;;;;5134109;27;20015;-78
2024/01/05 08:50:48;;;;;;;11.77;4.57;;;3.20;99.90;;;;;;5126998;27;20027;-79
2024/01/05 08:53:14;;;;;;;9.63;4.70;;;3.20;99.90;;;;;;5122692;27;20097;-78
2024/01/05 08:55:40;;;;;;;17.25;5.78;;;3.20;99.90;;;;;;5121998;27;20395;-80
2024/01/05 08:58:05;;;;;;;15.73;6.03;;;3.20;99.90;;;;;;5113610;28;20023;-79
2024/01/05 09:00:32;;;;;;;13.05;5.15;;;3.30;99.90;;;;;;5113013;28;20095;-79
2024/01/05 09:02:58;;;;;;;12.95;5.20;;;3.30;99.90;;;;;;5100208;27;20091;-79
2024/01/05 09:05:23;;;;;;;13.10;4.80;;;3.30;99.90;;;;;;5121225;27;20138;-79
2024/01/05 09:07:49;;;;;;;15.00;4.75;;;3.20;99.90;;;;;;5102138;28;20020;-78
2024/01/05 09:10:15;;;;;;;12.85;4.20;;;3.20;99.90;;;;;;5113059;28;20088;-78
2024/01/05 09:12:40;;;;;;;9.43;4.97;;;3.20;99.90;;;;;;5093794;28;20118;-78
2024/01/05 09:15:08;;;;;;;13.15;5.15;;;3.30;99.90;;;;;;5112770;28;20514;-80
2024/01/05 09:17:33;;;;;;;13.25;5.32;;;3.30;99.90;;;;;;5112387;28;20048;-80
2024/01/05 09:19:59;;;;;;;12.63;5.30;;;3.30;99.90;;;;;;5112518;28;20023;-80
2024/01/05 09:22:25;;;;;;;11.27;4.50;;;3.40;99.90;;;;;;5112702;28;20024;-79
2024/01/05 09:24:51;;;;;;;11.57;5.40;;;3.50;99.90;;;;;;5112483;27;20035;-80
2024/01/05 09:27:16;;;;;;;14.50;5.25;;;3.50;99.90;;;;;;5113268;28;20023;-79
2024/01/05 09:29:42;;;;;;;12.52;4.65;;;3.40;99.90;;;;;;5112743;28;20049;-81
2024/01/05 09:32:08;;;;;;;14.23;4.72;;;3.50;99.90;;;;;;5112742;28;20020;-79
2024/01/05 09:34:34;;;;;;;12.43;4.32;;;3.60;99.90;;;;;;5094179;28;20478;-80
2024/01/05 09:36:59;;;;;;;15.35;4.47;;;3.60;99.90;;;;;;5094751;28;20041;-79
2024/01/05 09:39:25;;;;;;;11.00;4.30;;;3.60;99.90;;;;;;5112508;28;20019;-80
2024/01/05 09:41:51;;;;;;;13.38;3.97;;;3.60;99.90;;;;;;5093964;28;20102;-80
2024/01/05 09:44:17;;;;;;;10.43;4.00;;;3.60;99.90;;;;;;5112779;28;20020;-80
2024/01/05 09:46:44;;;;;;;12.65;2.95;;;3.60;99.90;;;;;;5111625;28;20027;-80
2024/01/05 09:49:13;;;;;;;17.20;3.72;;;3.70;99.90;;;;;;5112679;27;20038;-80
2024/01/05 09:51:39;;;;;;;9.27;3.13;;;3.80;99.90;;;;;;5122376;27;20012;-80
2024/01/05 09:54:05;;;;;;;11.50;3.13;;;3.70;99.90;;;;;;5104791;27;20019;-80
2024/01/05 09:56:32;;;;;;;13.00;3.15;;;3.80;99.90;;;;;;5133020;27;20057;-81
2024/01/05 09:58:58;;;;;;;7.57;3.05;;;3.90;99.90;;;;;;5132169;27;20023;-80
2024/01/05 10:01:26;;;;;;;9.90;2.80;;;3.80;99.90;;;;;;5132847;27;20041;-79
2024/01/05 10:03:56;;;;;;;10.10;3.10;;;4.00;99.90;;;;;;5132361;27;20263;-81
2024/01/05 10:06:22;;;;;;;10.77;2.55;;;3.90;99.90;;;;;;5133230;27;20034;-79
2024/01/05 10:08:57;;;;;;;9.65;2.83;;;4.00;99.90;;;;;;5132288;27;20110;-79
2024/01/05 10:11:34;;;;;;;8.40;2.83;;;4.00;99.90;;;;;;5132503;27;20019;-78
2024/01/05 10:14:14;;;;;;;10.85;3.15;;;4.00;99.90;;;;;;5113749;27;20049;-79
2024/01/05 10:16:40;;;;;;;11.50;2.72;;;4.10;99.90;;;;;;5131870;27;20027;-79
2024/01/05 10:19:15;;;;;;;13.38;2.90;;;4.20;99.90;;;;;;5114014;27;20019;-79
2024/01/05 10:21:50;;;;;;;9.50;2.25;;;4.30;99.90;;;;;;5132527;27;20098;-80
2024/01/05 10:24:29;;;;;;;11.18;2.88;;;4.20;99.90;;;;;;5133137;27;20500;-80
2024/01/05 10:27:11;;;;;;;10.57;2.50;;;4.40;99.90;;;;;;5132018;27;20032;-80
2024/01/05 10:29:42;;;;;;;13.88;2.88;;;4.30;99.90;;;;;;5113437;28;20023;-80
2024/01/05 10:32:19;;;;;;;8.55;3.08;;;4.40;99.90;;;;;;5114985;28;20111;-79
2024/01/05 10:34:49;;;;;;;6.80;2.35;;;4.30;99.90;;;;;;5113349;28;20038;-80
2024/01/05 10:37:21;;;;;;;8.90;2.47;;;4.40;99.90;;;;;;5133123;28;20022;-79
2024/01/05 10:39:49;;;;;;;7.30;2.17;;;4.40;99.90;;;;;;5132257;28;20151;-80
2024/01/05 10:42:26;;;;;;;7.97;2.70;;;4.40;99.90;;;;;;5114967;28;20041;-80
2024/01/05 10:44:54;;;;;;;11.15;2.83;;;4.40;99.90;;;;;;5131735;28;20137;-80
2024/01/05 10:47:31;;;;;;;10.18;3.17;;;4.50;99.90;;;;;;5113643;28;20074;-79
2024/01/05 10:49:57;;;;;;;9.20;2.10;;;4.60;99.90;;;;;;5131407;28;20020;-79
2024/01/05 10:52:25;;;;;;;10.75;2.72;;;4.60;99.90;;;;;;5132795;28;20026;-79
2024/01/05 10:54:52;;;;;;;7.18;2.30;;;4.60;99.90;;;;;;5132263;28;20039;-80
2024/01/05 10:57:19;;;;;;;11.90;2.00;;;4.60;99.90;;;;;;5132981;27;20456;-79
2024/01/05 10:59:55;;;;;;;13.10;2.85;;;4.80;99.90;;;;;;5135649;27;20019;-80
2024/01/05 11:02:21;;;;;;;9.18;2.17;;;4.80;99.90;;;;;;5136907;27;20351;-80
2024/01/05 11:05:13;;;;;;;7.28;1.95;;;4.80;99.90;;;;;;5135293;27;20129;-80
2024/01/05 11:07:40;;;;;;;9.65;2.80;;;4.90;99.90;;;;;;5135908;27;20019;-81
2024/01/05 11:10:18;;;;;;;8.20;2.50;;;4.90;99.90;;;;;;5136124;27;20023;-80
2024/01/05 11:12:49;;;;;;;9.38;2.05;;;5.00;99.90;;;;;;5135312;27;20031;-78
2024/01/05 11:15:50;;;;;;;6.95;1.92;;;5.00;99.90;;;;;;5135793;27;20030;-79
2024/01/05 11:18:35;;;;;;;6.00;2.10;;;5.10;99.90;;;;;;5042260;28;20212;-80
2024/01/05 11:21:24;;;;;;;8.20;2.90;;;5.20;99.90;;;;;;5115135;28;20028;-80
2024/01/05 11:23:53;;;;;;;12.10;2.53;;;5.30;99.90;;;;;;5124890;27;20084;-80
2024/01/05 11:26:32;;;;;;;10.18;2.45;;;5.20;99.90;;;;;;5105070;27;20058;-80
2024/01/05 11:28:57;;;;;;;8.60;2.15;;;5.30;99.90;;;;;;5117348;27;20029;-81
2024/01/05 11:31:46;;;;;;;7.47;1.75;;;5.30;99.90;;;;;;5136029;27;20114;-80
2024/01/05 11:34:40;;;;;;;6.45;2.25;;;5.50;99.90;;;;;;5104882;27;20023;-80
2024/01/05 11:37:06;;;;;;;4.93;2.08;;;5.50;99.90;;;;;;5118367;27;20033;-80
2024/01/05 11:39:46;;;;;;;8.52;2.03;;;5.50;99.90;;;;;;5136336;27;20019;-81
2024/01/05 11:42:29;;;;;;;6.47;2.03;;;5.60;99.90;;;;;;5137121;27;20011;-80
2024/01/05 11:45:00;;;;;;;11.82;2.33;;;5.70;99.90;;;;;;5136311;27;20023;-81
2024/01/05 11:47:45;;;;;;;9.52;1.80;;;5.70;99.90;;;;;;5136439;27;20027;-81
2024/01/05 11:50:32;;;;;;;12.75;2.13;;;5.70;99.90;;;;;;5117923;27;20536;-81
2024/01/05 11:53:12;;;;;;;8.38;2.03;;;5.80;99.90;;;;;;5135630;27;20155;-81
2024/01/05 11:55:48;;;;;;;9.95;2.15;;;5.80;99.90;;;;;;5136375;27;20051;-80
2024/01/05 11:58:19;;;;;;;5.47;1.90;;;5.90;99.90;;;;;;5137393;27;20022;-79
2024/01/05 12:00:46;;;;;;;12.45;2.17;;;6.00;99.90;;;;;;5136124;27;20023;-80
2024/01/05 12:03:16;;;;;;;6.03;2.17;;;6.00;99.90;;;;;;5136892;27;20405;-80
2024/01/05 12:05:42;;;;;;;9.52;2.30;;;6.00;99.90;;;;;;5136318;27;20031;-81
2024/01/05 12:08:11;;;;;;;10.15;2.13;;;6.00;99.90;;;;;;5138988;27;20035;-79
2024/01/05 12:10:39;;;;;;;9.23;2.25;;;6.10;99.90;;;;;;5136891;27;20019;-81
2024/01/05 12:13:05;;;;;;;8.50;1.98;;;6.10;99.90;;;;;;5138572;27;20015;-81
2024/01/05 12:15:32;;;;;;;11.13;2.35;;;6.20;99.90;;;;;;5138212;27;20058;-81
2024/01/05 12:18:11;;;;;;;7.75;2.00;;;6.20;99.90;;;;;;5137031;27;20364;-81
2024/01/05 12:20:37;;;;;;;15.73;2.15;;;6.30;99.90;;;;;;5137733;27;20456;-79
2024/01/05 12:23:03;;;;;;;10.80;2.50;;;6.20;99.90;;;;;;5138048;27;20508;-80
2024/01/05 12:25:30;;;;;;;12.68;2.28;;;6.30;99.90;;;;;;5139497;27;20031;-80
2024/01/05 12:27:58;;;;;;;11.77;2.88;;;6.30;99.90;;;;;;5120504;27;20046;-80
2024/01/05 12:30:24;;;;;;;8.15;1.80;;;6.40;99.90;;;;;;5140599;27;20083;-78
2024/01/05 12:32:50;;;;;;;7.03;2.17;;;6.40;99.90;;;;;;5139799;27;20051;-80
2024/01/05 12:35:16;;;;;;;15.07;5.55;;;6.50;99.90;;;;;;5146431;27;20018;-79
2024/01/05 12:37:52;;;;;;;12.60;3.67;;;6.50;99.90;;;;;;5148866;27;20015;-83
2024/01/05 12:40:23;;;;;;;14.73;3.45;;;6.50;99.90;;;;;;5148918;27;20025;-78
2024/01/05 12:42:51;;;;;;;18.60;4.88;;;6.60;99.90;;;;;;5146110;27;20019;-78
2024/01/05 12:45:18;;;;;;;17.35;6.50;;;6.70;99.90;;;;;;5150844;27;20031;-80
2024/01/05 12:47:44;;;;;;;17.48;5.65;;;6.80;99.90;;;;;;5154093;27;20031;-82